Acadia Valley, Canada
Current Conditions -  °F | °C
As of 5:00 PM on Friday 24 Oct 2014 (Local Time) from CYKY Reporting Station
Few Clouds Few Clouds  
Wind Chill: 50°   Ceiling: Unl
Heat Index: 50°   Visibility: 15mi
Dew Point: 28°   Wind: 12mph
Humidity: 43%   Direction: 290°WNW
Pressure: 29.92"   Gusts: 20mph
Location:  51.15°N, 110.2°W
Report Text: CYKY 242300Z 29010G17KT 15SM FEW040 10/M02 A2992 RMK CU1 CU TR SLP148
Loading
Personal Weather Stations






























Interactive Weather Map
Tropical Storm Tracking
New forecast layout! Learn more

10-Day Weather Forecast

Advertisements
Track Severe Weather on mobile